Time;durP1;ratioP1;P1;durP2;ratioP2;P2;SDS_P1;SDS_P2;PMS_P1;PMS_P2;Temp;Humidity;BMP_temperature;BMP_pressure;BME280_temperature;BME280_humidity;BME280_pressure;Samples;Min_cycle;Max_cycle;Signal;HPM_P1;HPM_P2
2023/05/23 00:01:32;;;;;;;1999.90;999.90;;;;;;;22.23;51.22;102097.50;5069533;28;20040;-70
2023/05/23 00:03:57;;;;;;;1999.90;999.90;;;;;;;21.85;51.69;102095.38;5069829;28;20479;-71
2023/05/23 00:06:23;;;;;;;1999.90;999.90;;;;;;;22.19;51.81;102107.38;5063230;28;20586;-70
2023/05/23 00:08:49;;;;;;;1999.90;999.90;;;;;;;22.67;49.63;102100.19;5049734;28;20567;-70
2023/05/23 00:11:14;;;;;;;1999.90;999.90;;;;;;;22.05;50.66;102093.75;5049859;28;20548;-70
2023/05/23 00:13:40;;;;;;;1999.90;999.90;;;;;;;20.85;55.96;102093.56;5050038;28;20112;-70
2023/05/23 00:16:09;;;;;;;1999.90;999.90;;;;;;;21.54;52.78;102097.44;5048592;28;20040;-70
2023/05/23 00:18:41;;;;;;;1999.90;999.90;;;;;;;22.29;51.11;102104.38;5054502;28;20027;-70
2023/05/23 00:21:08;;;;;;;1999.90;999.90;;;;;;;21.82;52.08;102100.81;5050912;28;20053;-70
2023/05/23 00:23:34;;;;;;;1999.90;999.90;;;;;;;21.23;55.36;102114.44;5049465;28;20119;-70
2023/05/23 00:25:59;;;;;;;1999.90;999.90;;;;;;;21.54;53.29;102114.25;5050337;28;20611;-69
2023/05/23 00:28:25;;;;;;;1999.90;999.90;;;;;;;20.83;55.11;102106.88;5069148;28;20392;-71
2023/05/23 00:30:50;;;;;;;1999.90;999.90;;;;;;;21.64;53.31;102104.16;5066915;28;20496;-70
2023/05/23 00:33:20;;;;;;;1999.90;999.90;;;;;;;21.01;54.17;102099.22;5062442;28;20476;-71
2023/05/23 00:35:46;;;;;;;1999.90;999.90;;;;;;;20.65;56.44;102102.16;5049811;28;20484;-70
2023/05/23 00:38:11;;;;;;;1999.90;999.90;;;;;;;21.20;53.84;102099.47;5066334;28;20099;-70
2023/05/23 00:40:37;;;;;;;1999.90;999.90;;;;;;;21.79;52.43;102108.03;5053119;28;20112;-72
2023/05/23 00:43:02;;;;;;;1999.90;999.90;;;;;;;21.82;52.79;102108.78;5065906;28;20053;-72
2023/05/23 00:45:27;;;;;;;1999.90;999.90;;;;;;;21.24;55.41;102111.75;5064781;28;20376;-70
2023/05/23 00:47:53;;;;;;;1999.90;999.90;;;;;;;21.69;52.99;102115.47;5048801;28;20033;-70
2023/05/23 00:50:19;;;;;;;1999.90;999.90;;;;;;;21.83;52.06;102118.53;5054127;28;20024;-71
2023/05/23 00:52:47;;;;;;;1999.90;999.90;;;;;;;21.89;52.19;102114.75;5070193;28;20103;-71
2023/05/23 00:55:14;;;;;;;1999.90;999.90;;;;;;;20.26;56.73;102131.69;5069201;28;20089;-71
2023/05/23 00:57:40;;;;;;;1999.90;999.90;;;;;;;20.98;56.01;102125.91;5068226;28;20071;-70
2023/05/23 01:00:15;;;;;;;1999.90;999.90;;;;;;;21.31;55.54;102123.03;5067184;28;20059;-70
2023/05/23 01:02:44;;;;;;;1999.90;999.90;;;;;;;21.59;52.85;102128.25;5053454;28;20086;-70
2023/05/23 01:05:13;;;;;;;1999.90;999.90;;;;;;;20.80;56.12;102117.63;5047986;28;20032;-71
2023/05/23 01:07:39;;;;;;;1999.90;999.90;;;;;;;21.25;53.68;102123.22;5048736;28;20104;-70
2023/05/23 01:10:06;;;;;;;1999.90;999.90;;;;;;;21.16;55.22;102127.94;5048389;28;20140;-70
2023/05/23 01:13:36;;;;;;;1999.90;999.90;;;;;;;21.44;53.65;102120.78;5066634;28;20439;-71
2023/05/23 01:16:06;;;;;;;1999.90;999.90;;;;;;;21.54;53.63;102119.56;4990489;28;20040;-70
2023/05/23 01:18:57;;;;;;;1999.90;999.90;;;;;;;22.38;50.25;102122.69;4986098;28;20019;-71
2023/05/23 01:21:25;;;;;;;1999.90;999.90;;;;;;;21.89;52.18;102121.88;4999187;28;20529;-70
2023/05/23 01:24:09;;;;;;;1999.90;999.90;;;;;;;21.81;52.86;102124.81;5033373;28;20028;-70
2023/05/23 01:26:59;;;;;;;1999.90;999.90;;;;;;;21.64;52.20;102120.13;5065035;28;20029;-71
2023/05/23 01:29:29;;;;;;;1999.90;999.90;;;;;;;21.66;52.92;102128.91;5062476;28;20139;-71
2023/05/23 01:31:57;;;;;;;1999.90;999.90;;;;;;;22.70;48.84;102124.03;5064844;28;20024;-70
2023/05/23 01:34:23;;;;;;;1999.90;999.90;;;;;;;22.14;49.88;102120.00;5067114;28;20024;-70
2023/05/23 01:36:52;;;;;;;1999.90;999.90;;;;;;;22.42;50.60;102124.31;5068270;28;20535;-70
2023/05/23 01:39:18;;;;;;;1999.90;999.90;;;;;;;22.55;49.42;102123.81;5052236;28;20020;-71
2023/05/23 01:41:43;;;;;;;1999.90;999.90;;;;;;;22.59;48.90;102128.09;5048902;28;20028;-70
2023/05/23 01:44:09;;;;;;;1999.90;999.90;;;;;;;21.76;49.66;102125.00;5048474;28;20028;-71
2023/05/23 01:46:38;;;;;;;1999.90;999.90;;;;;;;22.46;48.69;102131.25;5055356;28;20097;-69
2023/05/23 01:49:11;;;;;;;1999.90;999.90;;;;;;;22.90;48.04;102124.16;5067938;28;20096;-70
2023/05/23 01:51:37;;;;;;;1999.90;999.90;;;;;;;22.92;48.06;102122.31;5068713;28;20039;-70
2023/05/23 01:54:02;;;;;;;1999.90;999.90;;;;;;;22.12;49.34;102132.53;5049409;28;20483;-70
2023/05/23 01:56:29;;;;;;;1999.90;999.90;;;;;;;22.28;48.73;102132.78;5063605;28;20013;-70
2023/05/23 01:58:54;;;;;;;1999.90;999.90;;;;;;;22.63;47.99;102133.22;5052377;28;20073;-70
2023/05/23 02:01:20;;;;;;;1999.90;999.90;;;;;;;23.73;44.93;102136.59;5051393;28;20079;-69
2023/05/23 02:03:45;;;;;;;1999.90;999.90;;;;;;;22.78;46.16;102131.75;5053297;28;20025;-70
2023/05/23 02:06:11;;;;;;;1999.90;999.90;;;;;;;21.99;48.33;102132.09;5052145;28;20392;-70
2023/05/23 02:08:36;;;;;;;1999.90;999.90;;;;;;;23.06;46.09;102133.25;5051903;28;20464;-69
2023/05/23 02:11:02;;;;;;;1999.90;999.90;;;;;;;22.17;48.03;102129.66;5071889;28;20032;-70
2023/05/23 02:13:27;;;;;;;1999.90;999.90;;;;;;;22.61;47.27;102132.41;5066722;28;20020;-70
2023/05/23 02:15:53;;;;;;;1999.90;999.90;;;;;;;22.88;45.87;102138.41;5071804;28;20035;-70
2023/05/23 02:18:19;;;;;;;1999.90;999.90;;;;;;;23.51;45.17;102134.88;5064924;28;20494;-70
2023/05/23 02:20:45;;;;;;;1999.90;999.90;;;;;;;21.55;49.21;102136.41;5052491;28;20401;-71
2023/05/23 02:23:10;;;;;;;1999.90;999.90;;;;;;;22.40;47.49;102136.81;5050964;28;20020;-70
2023/05/23 02:25:35;;;;;;;1999.90;999.90;;;;;;;22.43;47.49;102143.81;5064207;28;20032;-70
2023/05/23 02:28:01;;;;;;;1999.90;999.90;;;;;;;21.51;49.17;102147.13;5051576;28;20060;-70
2023/05/23 02:30:26;;;;;;;1999.90;999.90;;;;;;;22.94;46.22;102141.75;5058103;28;20392;-70
2023/05/23 02:32:52;;;;;;;1999.90;999.90;;;;;;;21.80;48.72;102147.91;5071996;28;20499;-70
2023/05/23 02:35:17;;;;;;;1999.90;999.90;;;;;;;21.56;49.88;102154.13;5071690;28;20017;-70
2023/05/23 02:37:42;;;;;;;1999.90;999.90;;;;;;;21.55;48.97;102152.38;5065812;28;20118;-70
2023/05/23 02:40:08;;;;;;;1999.90;999.90;;;;;;;21.73;48.80;102162.34;5056806;28;20042;-69
2023/05/23 02:42:33;;;;;;;1999.90;999.90;;;;;;;20.47;51.82;102168.22;5052538;28;20467;-71
2023/05/23 02:44:59;;;;;;;1999.90;999.90;;;;;;;20.35;52.16;102171.25;5063843;28;20020;-71
2023/05/23 02:47:24;;;;;;;1999.90;999.90;;;;;;;21.58;49.75;102165.56;5063218;28;20032;-69
2023/05/23 02:49:50;;;;;;;1999.90;999.90;;;;;;;20.91;51.64;102182.81;5071378;28;20029;-69
2023/05/23 02:52:15;;;;;;;1999.90;999.90;;;;;;;21.18;49.40;102176.63;5053746;28;20165;-70
2023/05/23 02:54:41;;;;;;;1999.90;999.90;;;;;;;21.04;49.79;102170.88;5058907;28;20107;-71
2023/05/23 02:57:06;;;;;;;1999.90;999.90;;;;;;;20.52;51.42;102181.34;5070522;28;20020;-70
2023/05/23 02:59:32;;;;;;;1999.90;999.90;;;;;;;20.50;50.77;102184.03;5053719;28;20028;-70
2023/05/23 03:01:57;;;;;;;1999.90;999.90;;;;;;;20.15;51.86;102185.97;5062632;28;20492;-68
2023/05/23 03:04:23;;;;;;;1999.90;999.90;;;;;;;20.17;51.38;102176.16;5071569;28;20287;-69
2023/05/23 03:06:48;;;;;;;1999.90;999.90;;;;;;;20.35;50.76;102179.22;5070941;28;20107;-70
2023/05/23 03:09:15;;;;;;;1999.90;999.90;;;;;;;20.61;49.50;102180.22;5054419;28;20037;-70
2023/05/23 03:11:42;;;;;;;1999.90;999.90;;;;;;;21.55;48.10;102174.50;5050499;28;20039;-71
2023/05/23 03:14:07;;;;;;;1999.90;999.90;;;;;;;21.34;48.94;102181.41;5056008;28;20020;-69
2023/05/23 03:16:32;;;;;;;1999.90;999.90;;;;;;;21.31;48.04;102186.84;5070869;28;20024;-70
2023/05/23 03:18:58;;;;;;;1999.90;999.90;;;;;;;20.38;50.25;102183.56;5069251;28;20502;-70
2023/05/23 03:21:23;;;;;;;1999.90;999.90;;;;;;;20.82;49.70;102186.66;5070595;28;20060;-72
2023/05/23 03:23:49;;;;;;;1999.90;999.90;;;;;;;21.45;47.26;102179.25;5065444;28;20033;-70
2023/05/23 03:26:15;;;;;;;1999.90;999.90;;;;;;;21.76;46.91;102175.56;5049720;28;20025;-70
2023/05/23 03:28:40;;;;;;;1999.90;999.90;;;;;;;20.23;49.30;102187.53;5058251;28;20033;-72
2023/05/23 03:31:05;;;;;;;1999.90;999.90;;;;;;;21.97;47.46;102184.53;5051137;28;20108;-69
2023/05/23 03:33:31;;;;;;;1999.90;999.90;;;;;;;21.19;48.48;102188.97;5051903;28;20052;-70
2023/05/23 03:35:56;;;;;;;1999.90;999.90;;;;;;;21.35;47.88;102177.84;5050631;28;20035;-69
2023/05/23 03:38:22;;;;;;;1999.90;999.90;;;;;;;21.41;46.69;102188.25;5050284;28;20071;-70
2023/05/23 03:40:47;;;;;;;1999.90;999.90;;;;;;;21.22;48.29;102187.16;5051293;28;20510;-70
2023/05/23 03:43:13;;;;;;;1999.90;999.90;;;;;;;21.02;47.75;102192.19;5060549;28;20056;-70
2023/05/23 03:45:41;;;;;;;1999.90;999.90;;;;;;;21.34;47.13;102197.38;5065248;28;20099;-70
2023/05/23 03:48:07;;;;;;;1999.90;999.90;;;;;;;20.86;47.64;102192.75;5070937;28;20021;-69
2023/05/23 03:50:33;;;;;;;1999.90;999.90;;;;;;;20.91;47.21;102202.31;5067458;28;20094;-69
2023/05/23 03:52:58;;;;;;;1999.90;999.90;;;;;;;20.36;48.42;102206.63;5050509;28;20384;-69
2023/05/23 03:55:24;;;;;;;1999.90;999.90;;;;;;;21.10;47.68;102205.25;5049416;28;20111;-70
2023/05/23 03:57:53;;;;;;;1999.90;999.90;;;;;;;21.33;46.34;102201.81;5054726;28;20516;-69
2023/05/23 04:00:19;;;;;;;1999.90;999.90;;;;;;;20.64;47.49;102210.19;5068837;28;20012;-69
2023/05/23 04:02:45;;;;;;;1999.90;999.90;;;;;;;21.26;46.09;102204.75;5051677;28;20208;-70
2023/05/23 04:05:12;;;;;;;1999.90;999.90;;;;;;;21.68;45.26;102206.88;5066708;28;20098;-70
2023/05/23 04:07:37;;;;;;;1999.90;999.90;;;;;;;20.05;49.03;102224.28;5069609;28;20029;-70
2023/05/23 04:10:08;;;;;;;1999.90;999.90;;;;;;;21.39;45.81;102216.72;5055173;28;20036;-70
2023/05/23 04:12:34;;;;;;;1999.90;999.90;;;;;;;20.97;45.83;102233.13;5048655;28;20039;-70
2023/05/23 04:14:59;;;;;;;1999.90;999.90;;;;;;;20.88;46.01;102230.75;5063325;28;20108;-69
2023/05/23 04:17:29;;;;;;;1999.90;999.90;;;;;;;20.46;47.71;102232.84;5049311;28;20120;-70
2023/05/23 04:19:55;;;;;;;1999.90;999.90;;;;;;;19.91;47.89;102242.41;5049056;28;20016;-69
2023/05/23 04:22:20;;;;;;;1999.90;999.90;;;;;;;20.58;46.97;102239.59;5061979;28;20458;-70
2023/05/23 04:24:46;;;;;;;1999.90;999.90;;;;;;;19.69;47.74;102240.28;5069616;28;20120;-70
2023/05/23 04:27:12;;;;;;;1999.90;999.90;;;;;;;19.78;46.69;102237.38;5061363;28;20135;-70
2023/05/23 04:29:38;;;;;;;1999.90;999.90;;;;;;;20.04;47.92;102243.78;5059882;28;20050;-70
2023/05/23 04:32:07;;;;;;;1999.90;999.90;;;;;;;20.34;47.11;102241.19;5059824;28;20020;-69
2023/05/23 04:34:32;;;;;;;1999.90;999.90;;;;;;;20.50;45.65;102242.47;5068721;28;20115;-70
2023/05/23 04:37:01;;;;;;;1999.90;999.90;;;;;;;20.48;45.66;102239.00;5067438;28;20123;-69
2023/05/23 04:39:26;;;;;;;1999.90;999.90;;;;;;;19.80;46.99;102245.34;5069677;28;20414;-70
2023/05/23 04:41:53;;;;;;;1999.90;999.90;;;;;;;21.21;44.11;102259.84;5057425;28;20043;-70
2023/05/23 04:44:19;;;;;;;1999.90;999.90;;;;;;;19.99;46.72;102256.31;5048287;28;20035;-69
2023/05/23 04:46:44;;;;;;;1999.90;999.90;;;;;;;20.21;45.27;102261.03;5049198;28;20548;-70
2023/05/23 04:49:11;;;;;;;1999.90;999.90;;;;;;;20.13;46.67;102255.94;5048874;28;20036;-70
2023/05/23 04:51:37;;;;;;;1999.90;999.90;;;;;;;20.97;44.35;102265.88;5053452;28;20032;-70
2023/05/23 04:54:03;;;;;;;1999.90;999.90;;;;;;;20.00;46.17;102268.66;5049224;28;20033;-72
2023/05/23 04:56:28;;;;;;;1999.90;999.90;;;;;;;20.16;45.64;102267.31;5061599;28;20072;-70
2023/05/23 04:58:54;;;;;;;1999.90;999.90;;;;;;;20.24;46.45;102276.88;5068328;28;20530;-70
2023/05/23 05:01:23;;;;;;;1999.90;999.90;;;;;;;20.34;45.53;102271.25;5068406;28;20569;-70
2023/05/23 05:03:49;;;;;;;1999.90;999.90;;;;;;;20.80;45.25;102279.72;5065846;28;20119;-70
2023/05/23 05:06:16;;;;;;;1999.90;999.90;;;;;;;19.07;47.50;102286.84;5059167;28;20036;-70
2023/05/23 05:08:41;;;;;;;1999.90;999.90;;;;;;;21.28;44.06;102285.31;5059890;28;20031;-70
2023/05/23 05:11:08;;;;;;;1999.90;999.90;;;;;;;20.90;43.92;102282.94;5069323;28;20028;-70
2023/05/23 05:13:33;;;;;;;1999.90;999.90;;;;;;;21.08;43.76;102296.59;5068800;28;20665;-69
2023/05/23 05:15:59;;;;;;;1999.90;999.90;;;;;;;20.48;44.51;102294.78;5067739;28;20118;-70
2023/05/23 05:18:26;;;;;;;1999.90;999.90;;;;;;;20.60;44.22;102295.34;5067728;28;20029;-70
2023/05/23 05:20:51;;;;;;;1999.90;999.90;;;;;;;20.80;43.26;102297.41;5053982;28;20500;-70
2023/05/23 05:23:17;;;;;;;1999.90;999.90;;;;;;;20.03;44.94;102304.88;5048430;28;20024;-70
2023/05/23 05:25:42;;;;;;;1999.90;999.90;;;;;;;19.73;46.18;102302.94;5056149;28;20146;-70
2023/05/23 05:28:08;;;;;;;1999.90;999.90;;;;;;;20.73;44.06;102315.34;5068047;28;20028;-70
2023/05/23 05:30:36;;;;;;;1999.90;999.90;;;;;;;20.53;43.89;102309.72;5068453;28;20047;-70
2023/05/23 05:33:03;;;;;;;1999.90;999.90;;;;;;;20.33;44.54;102313.78;5064739;28;20456;-70
2023/05/23 05:35:32;;;;;;;1999.90;999.90;;;;;;;20.57;43.10;102311.38;5065480;28;20036;-70
2023/05/23 05:37:58;;;;;;;1999.90;999.90;;;;;;;21.12;42.86;102309.72;5051253;28;20024;-71
2023/05/23 05:40:24;;;;;;;1999.90;999.90;;;;;;;19.22;45.30;102313.88;5065204;28;20029;-71
2023/05/23 05:42:49;;;;;;;1999.90;999.90;;;;;;;19.97;44.45;102316.50;5067678;28;20507;-70
2023/05/23 05:45:15;;;;;;;1999.90;999.90;;;;;;;19.61;45.15;102319.16;5064098;28;20155;-70
2023/05/23 05:47:40;;;;;;;1999.90;999.90;;;;;;;21.18;42.74;102325.50;5053629;28;20021;-71
2023/05/23 05:50:09;;;;;;;1999.90;999.90;;;;;;;20.70;42.96;102326.03;5061281;28;20033;-70
2023/05/23 05:52:38;;;;;;;1999.90;999.90;;;;;;;20.94;42.99;102331.56;5064865;28;20025;-70
2023/05/23 05:55:05;;;;;;;1999.90;999.90;;;;;;;19.97;44.67;102329.78;5063165;28;20383;-70
2023/05/23 05:57:31;;;;;;;1999.90;999.90;;;;;;;20.39;44.16;102333.97;5060160;28;20060;-70
2023/05/23 05:59:57;;;;;;;1999.90;999.90;;;;;;;21.05;42.83;102324.13;5050315;28;20036;-70
2023/05/23 06:02:22;;;;;;;1999.90;999.90;;;;;;;21.21;42.54;102331.63;5047645;28;20028;-70
2023/05/23 06:04:47;;;;;;;1999.90;999.90;;;;;;;21.98;41.65;102331.81;5056643;28;20119;-70
2023/05/23 06:07:13;;;;;;;1999.90;999.90;;;;;;;20.51;43.60;102334.53;5065433;28;20043;-69
2023/05/23 06:09:38;;;;;;;1999.90;999.90;;;;;;;20.82;44.22;102333.66;5050752;28;20029;-70
2023/05/23 06:12:04;;;;;;;1999.90;999.90;;;;;;;20.39;45.19;102340.16;5049716;28;20416;-70
2023/05/23 06:14:29;;;;;;;1999.90;999.90;;;;;;;19.45;47.50;102340.75;5048695;28;20062;-71
2023/05/23 06:16:55;;;;;;;1999.90;999.90;;;;;;;20.67;44.49;102340.25;5048469;28;20159;-70
2023/05/23 06:19:20;;;;;;;1999.90;999.90;;;;;;;20.45;45.81;102345.28;5051324;28;20037;-70
2023/05/23 06:21:45;;;;;;;1999.90;999.90;;;;;;;20.87;44.94;102340.63;5066295;28;20036;-70
2023/05/23 06:24:11;;;;;;;1999.90;999.90;;;;;;;19.65;47.84;102355.31;5062717;28;20028;-71
2023/05/23 06:26:37;;;;;;;1999.90;999.90;;;;;;;19.07;49.16;102344.25;5066279;28;20032;-70
2023/05/23 06:29:06;;;;;;;1999.90;999.90;;;;;;;19.21;48.96;102351.91;5067294;28;20024;-70
2023/05/23 06:31:31;;;;;;;1999.90;999.90;;;;;;;19.89;47.57;102345.03;5069505;28;20110;-69
2023/05/23 06:33:57;;;;;;;1999.90;999.90;;;;;;;19.00;49.08;102356.78;5068098;28;20548;-72
2023/05/23 06:36:22;;;;;;;1999.90;999.90;;;;;;;20.12;47.60;102358.56;5066322;28;20115;-70
2023/05/23 06:38:47;;;;;;;1999.90;999.90;;;;;;;19.98;47.44;102355.41;5066204;28;20035;-71
2023/05/23 06:41:13;;;;;;;1999.90;999.90;;;;;;;21.24;45.10;102355.47;5053232;28;20040;-69
2023/05/23 06:43:38;;;;;;;1999.90;999.90;;;;;;;20.93;45.84;102356.41;5067700;28;20093;-70
2023/05/23 06:46:07;;;;;;;1999.90;999.90;;;;;;;20.53;46.47;102355.72;5068717;28;20024;-70
2023/05/23 06:48:32;;;;;;;1999.90;999.90;;;;;;;21.71;44.58;102355.78;5067716;28;20032;-70
2023/05/23 06:50:57;;;;;;;1999.90;999.90;;;;;;;20.86;45.16;102354.84;5066908;28;20459;-70
2023/05/23 06:53:23;;;;;;;1999.90;999.90;;;;;;;21.35;45.35;102356.00;5064939;28;20390;-70
2023/05/23 06:55:48;;;;;;;1999.90;999.90;;;;;;;21.24;44.21;102360.78;5068195;28;20067;-70
2023/05/23 06:58:14;;;;;;;1999.90;999.90;;;;;;;20.97;44.56;102360.72;5055099;28;20044;-70
2023/05/23 07:00:39;;;;;;;1999.90;999.90;;;;;;;21.49;45.11;102360.91;5059831;28;20073;-69
2023/05/23 07:03:06;;;;;;;1999.90;999.90;;;;;;;20.31;45.99;102363.41;5046533;28;20102;-69
2023/05/23 07:05:33;;;;;;;1999.90;999.90;;;;;;;20.42;45.13;102361.31;5069998;28;20025;-70
2023/05/23 07:07:59;;;;;;;1999.90;999.90;;;;;;;21.46;43.39;102375.16;5064371;28;20459;-68
2023/05/23 07:10:25;;;;;;;1999.90;999.90;;;;;;;20.17;45.12;102377.91;5069005;28;20124;-70
2023/05/23 07:12:50;;;;;;;1999.90;999.90;;;;;;;21.62;42.65;102377.34;5068855;28;20028;-70
2023/05/23 07:15:16;;;;;;;1999.90;999.90;;;;;;;21.57;41.86;102374.84;5059234;28;20048;-69
2023/05/23 07:17:41;;;;;;;1999.90;999.90;;;;;;;21.76;40.91;102375.13;5069400;28;20090;-70
2023/05/23 07:20:07;;;;;;;1999.90;999.90;;;;;;;23.45;38.18;102372.63;5069918;28;20024;-68
2023/05/23 07:22:33;;;;;;;1999.90;999.90;;;;;;;24.86;36.20;102370.16;5067381;28;20408;-70
2023/05/23 07:24:58;;;;;;;1999.90;999.90;;;;;;;24.76;34.38;102366.19;5066141;28;20029;-69
2023/05/23 07:27:25;;;;;;;1999.90;999.90;;;;;;;24.96;33.07;102375.94;5060473;28;20043;-70
2023/05/23 07:29:50;;;;;;;1999.90;999.90;;;;;;;24.79;32.47;102371.41;5064241;28;20032;-70
2023/05/23 07:32:16;;;;;;;1999.90;999.90;;;;;;;25.93;30.44;102388.31;5063178;28;20056;-70
2023/05/23 07:34:41;;;;;;;1999.90;999.90;;;;;;;25.01;31.52;102379.28;5058770;28;20043;-69
2023/05/23 07:37:07;;;;;;;1999.90;999.90;;;;;;;24.35;31.43;102384.94;5066177;28;20029;-71
2023/05/23 07:39:32;;;;;;;1999.90;999.90;;;;;;;24.84;31.24;102388.09;5052940;28;20025;-69
2023/05/23 07:41:58;;;;;;;1999.90;999.90;;;;;;;26.23;29.84;102392.09;5059771;28;20028;-70
2023/05/23 07:44:23;;;;;;;1999.90;999.90;;;;;;;23.60;33.05;102399.59;5052812;28;20899;-70
2023/05/23 07:46:49;;;;;;;1999.90;999.90;;;;;;;23.17;34.15;102397.69;5051431;28;20032;-70
2023/05/23 07:49:14;;;;;;;1999.90;999.90;;;;;;;25.64;29.19;102387.97;5062131;28;20029;-69
2023/05/23 07:51:40;;;;;;;1999.90;999.90;;;;;;;24.90;31.14;102393.16;5061383;28;20169;-71
2023/05/23 07:54:06;;;;;;;1999.90;999.90;;;;;;;24.91;30.15;102388.69;5058420;28;20116;-70
2023/05/23 07:56:31;;;;;;;1999.90;999.90;;;;;;;25.24;30.92;102396.94;5053091;28;20025;-70
2023/05/23 07:58:56;;;;;;;1999.90;999.90;;;;;;;24.56;30.95;102400.03;5050839;28;20413;-70
2023/05/23 08:01:24;;;;;;;1999.90;999.90;;;;;;;24.39;31.19;102407.91;5051474;28;20086;-70
2023/05/23 08:03:49;;;;;;;1999.90;999.90;;;;;;;25.01;31.32;102405.19;5051484;28;20074;-70
2023/05/23 08:06:15;;;;;;;1999.90;999.90;;;;;;;23.32;32.37;102390.91;5054515;28;20032;-70
2023/05/23 08:08:42;;;;;;;1999.90;999.90;;;;;;;25.01;30.20;102394.47;5060614;28;20032;-70
2023/05/23 08:11:08;;;;;;;1999.90;999.90;;;;;;;25.06;31.50;102393.31;5064697;28;20549;-69
2023/05/23 08:13:33;;;;;;;1999.90;999.90;;;;;;;26.23;29.05;102396.63;5055414;28;20029;-70
2023/05/23 08:15:58;;;;;;;1999.90;999.90;;;;;;;26.96;28.48;102400.84;5052133;28;20492;-70
2023/05/23 08:18:24;;;;;;;1999.90;999.90;;;;;;;26.58;29.07;102408.16;5069103;28;20036;-70
2023/05/23 08:20:49;;;;;;;1999.90;999.90;;;;;;;25.86;29.47;102415.38;5062908;28;20093;-70
2023/05/23 08:23:16;;;;;;;1999.90;999.90;;;;;;;24.58;31.63;102423.13;5066018;28;20032;-70
2023/05/23 08:25:42;;;;;;;1999.90;999.90;;;;;;;26.64;29.29;102412.31;5056367;28;20542;-70
2023/05/23 08:28:07;;;;;;;1999.90;999.90;;;;;;;24.99;30.89;102418.63;5057953;28;20028;-70
2023/05/23 08:30:33;;;;;;;1999.90;999.90;;;;;;;24.56;30.87;102421.41;5062990;28;20028;-70
2023/05/23 08:32:59;;;;;;;1999.90;999.90;;;;;;;25.94;29.75;102422.16;5065768;28;20025;-70
2023/05/23 08:35:25;;;;;;;1999.90;999.90;;;;;;;24.48;31.25;102425.34;5057147;28;20047;-71
2023/05/23 08:37:51;;;;;;;1999.90;999.90;;;;;;;24.76;31.38;102416.09;5064172;28;20128;-70
2023/05/23 08:40:21;;;;;;;1999.90;999.90;;;;;;;24.89;31.49;102417.28;5061895;28;20512;-70
2023/05/23 08:42:47;;;;;;;1999.90;999.90;;;;;;;23.92;32.29;102413.47;5059902;28;20032;-70
2023/05/23 08:45:13;;;;;;;1999.90;999.90;;;;;;;24.30;31.83;102427.88;5054030;28;20035;-70
2023/05/23 08:47:41;;;;;;;1999.90;999.90;;;;;;;24.52;31.77;102419.81;5054735;28;20485;-70
2023/05/23 08:50:07;;;;;;;1999.90;999.90;;;;;;;23.86;32.42;102425.22;5055707;28;20021;-69
2023/05/23 08:52:36;;;;;;;1999.90;999.90;;;;;;;26.31;29.94;102421.19;5058895;28;20503;-69
2023/05/23 08:55:02;;;;;;;1999.90;999.90;;;;;;;24.69;30.63;102415.53;5054862;28;20032;-69
2023/05/23 08:57:29;;;;;;;1999.90;999.90;;;;;;;24.69;31.36;102423.56;5062241;28;20643;-69
2023/05/23 08:59:55;;;;;;;1999.90;999.90;;;;;;;23.81;31.72;102432.56;5050260;28;20366;-70
2023/05/23 09:02:21;;;;;;;1999.90;999.90;;;;;;;24.19;32.07;102433.69;5049421;28;20040;-70
2023/05/23 09:04:47;;;;;;;1999.90;999.90;;;;;;;24.46;31.26;102436.09;5048166;28;20094;-70
2023/05/23 09:07:15;;;;;;;1999.90;999.90;;;;;;;25.20;30.32;102432.78;5067459;28;20028;-69
2023/05/23 09:09:41;;;;;;;1999.90;999.90;;;;;;;25.79;30.94;102435.38;5057980;28;20024;-70
2023/05/23 09:12:06;;;;;;;1999.90;999.90;;;;;;;27.54;28.01;102434.31;5056212;28;20083;-69
2023/05/23 09:14:32;;;;;;;1999.90;999.90;;;;;;;27.21;26.96;102433.38;5051826;28;20039;-69
2023/05/23 09:17:07;;;;;;;1999.90;999.90;;;;;;;25.67;28.51;102452.91;5057792;28;20035;-69
2023/05/23 09:19:32;;;;;;;1999.90;999.90;;;;;;;26.68;28.46;102446.06;5058401;28;20048;-69
2023/05/23 09:22:01;;;;;;;1999.90;999.90;;;;;;;25.03;29.16;102446.06;5067140;28;20071;-69
2023/05/23 09:24:35;;;;;;;1999.90;999.90;;;;;;;25.31;29.48;102450.16;5063812;28;20055;-69
2023/05/23 09:27:00;;;;;;;1999.90;999.90;;;;;;;25.22;29.98;102444.31;5061316;28;20027;-69
2023/05/23 09:29:26;;;;;;;1999.90;999.90;;;;;;;25.91;29.46;102447.28;5048043;28;20156;-70
2023/05/23 09:31:59;;;;;;;1999.90;999.90;;;;;;;25.84;28.43;102460.13;5048882;28;20033;-70
2023/05/23 09:34:25;;;;;;;1999.90;999.90;;;;;;;25.79;28.09;102451.44;5050842;28;20123;-69
2023/05/23 09:36:54;;;;;;;1999.90;999.90;;;;;;;24.79;29.33;102451.59;5055328;28;20166;-70
2023/05/23 09:39:19;;;;;;;1999.90;999.90;;;;;;;24.94;29.23;102462.56;5058792;28;20025;-70
2023/05/23 09:41:47;;;;;;;1999.90;999.90;;;;;;;24.88;29.37;102453.88;5058002;28;20031;-69
2023/05/23 09:44:13;;;;;;;1999.90;999.90;;;;;;;26.52;28.28;102451.38;5054004;28;20020;-68
2023/05/23 09:46:38;;;;;;;1999.90;999.90;;;;;;;27.67;27.08;102456.81;5054785;28;20421;-69
2023/05/23 09:49:16;;;;;;;1999.90;999.90;;;;;;;26.48;27.12;102455.16;5049409;28;20032;-70
2023/05/23 09:51:41;;;;;;;1999.90;999.90;;;;;;;26.87;27.49;102454.03;5060166;28;20025;-69
2023/05/23 09:54:07;;;;;;;1999.90;999.90;;;;;;;26.19;26.93;102456.66;5065675;28;20385;-69
2023/05/23 09:56:36;;;;;;;1999.90;999.90;;;;;;;26.83;27.67;102454.28;5063556;28;20024;-70
2023/05/23 09:59:02;;;;;;;1999.90;999.90;;;;;;;26.35;27.52;102454.94;5055520;28;20098;-69
2023/05/23 10:01:30;;;;;;;1999.90;999.90;;;;;;;26.38;28.27;102459.28;5057103;28;20036;-69
2023/05/23 10:03:58;;;;;;;1999.90;999.90;;;;;;;27.80;27.02;102456.13;5067872;28;20021;-69
2023/05/23 10:06:48;;;;;;;1999.90;999.90;;;;;;;28.34;27.06;102461.88;5066981;28;20024;-70
2023/05/23 10:09:17;;;;;;;1999.90;999.90;;;;;;;26.20;28.98;102472.66;5049240;28;20052;-69
2023/05/23 10:12:44;;;;;;;1999.90;999.90;;;;;;;25.78;29.80;102473.81;5050024;28;20462;-69
2023/05/23 10:15:12;;;;;;;1999.90;999.90;;;;;;;26.47;26.94;102468.66;4980171;28;20497;-69
2023/05/23 10:17:45;;;;;;;1999.90;999.90;;;;;;;25.08;31.17;102470.81;5051842;28;20170;-69
2023/05/23 10:20:15;;;;;;;1999.90;999.90;;;;;;;26.66;28.54;102473.91;5066748;28;20029;-70
2023/05/23 10:22:41;;;;;;;1999.90;999.90;;;;;;;25.21;30.71;102477.34;5051438;28;20365;-69
2023/05/23 10:25:09;;;;;;;1999.90;999.90;;;;;;;24.61;30.89;102476.47;5051490;28;20037;-69
2023/05/23 10:27:38;;;;;;;1999.90;999.90;;;;;;;26.30;30.21;102467.69;5050975;28;20032;-69
2023/05/23 10:30:06;;;;;;;1999.90;999.90;;;;;;;26.24;29.86;102474.25;5055433;28;20431;-69
2023/05/23 10:32:33;;;;;;;1999.90;999.90;;;;;;;26.03;30.57;102486.03;5051156;28;20435;-69
2023/05/23 10:35:18;;;;;;;1999.90;999.90;;;;;;;24.92;31.49;102481.31;5053663;28;20496;-71
2023/05/23 10:37:51;;;;;;;1999.90;999.90;;;;;;;25.51;30.92;102468.88;5050662;28;20079;-69
2023/05/23 10:40:31;;;;;;;1999.90;999.90;;;;;;;25.24;31.08;102487.03;5071527;28;20421;-70
2023/05/23 10:43:09;;;;;;;1999.90;999.90;;;;;;;24.87;32.05;102494.91;5063992;28;20079;-69
2023/05/23 10:45:42;;;;;;;1999.90;999.90;;;;;;;26.09;30.27;102485.75;5067332;28;20033;-69
2023/05/23 10:48:43;;;;;;;;;;;;;;;24.25;32.59;102503.78;5056271;28;20123;-69